createdAt,value
2022-10-16T00:01:47.060Z,74.46
2022-10-16T00:04:15.851Z,74.55
2022-10-16T00:06:44.231Z,74.50
2022-10-16T00:09:12.576Z,74.20
2022-10-16T00:11:43.070Z,74.50
2022-10-16T00:14:15.692Z,74.66
2022-10-16T00:16:45.623Z,74.76
2022-10-16T00:19:14.369Z,75.00
2022-10-16T00:21:43.248Z,75.52
2022-10-16T00:24:12.330Z,75.87
2022-10-16T00:26:41.560Z,76.08
2022-10-16T00:29:11.268Z,76.24
2022-10-16T00:31:39.566Z,76.26
2022-10-16T00:34:09.244Z,76.35
2022-10-16T00:36:37.556Z,76.62
2022-10-16T00:39:06.273Z,76.67
2022-10-16T00:41:35.304Z,77.23
2022-10-16T00:44:06.127Z,77.56
2022-10-16T00:46:40.591Z,77.66
2022-10-16T00:49:14.616Z,77.80
2022-10-16T00:51:47.645Z,77.70
2022-10-16T00:54:20.261Z,78.03
2022-10-16T00:56:49.279Z,78.39
2022-10-16T00:59:20.699Z,78.43
2022-10-16T01:01:49.119Z,78.72
2022-10-16T01:04:18.886Z,79.12
2022-10-16T01:06:57.197Z,79.73
2022-10-16T01:09:33.192Z,80.36
2022-10-16T01:12:11.463Z,80.68
2022-10-16T01:14:48.351Z,80.93
2022-10-16T01:17:21.338Z,81.18
2022-10-16T01:20:08.046Z,81.04
2022-10-16T01:22:49.399Z,80.73
2022-10-16T01:25:27.826Z,80.62
2022-10-16T01:27:58.250Z,80.43
2022-10-16T01:30:30.319Z,80.51
2022-10-16T01:33:04.627Z,80.67
2022-10-16T01:35:37.873Z,80.80
2022-10-16T01:38:11.097Z,80.95
2022-10-16T01:40:43.898Z,81.08
2022-10-16T01:43:16.700Z,81.40
2022-10-16T01:45:47.222Z,81.59
2022-10-16T01:48:20.226Z,81.98
2022-10-16T01:50:56.893Z,82.22
2022-10-16T01:53:26.849Z,82.14
2022-10-16T01:55:58.095Z,82.39
2022-10-16T01:58:31.838Z,82.79
2022-10-16T02:01:00.487Z,83.22
2022-10-16T02:03:29.042Z,83.21
2022-10-16T02:06:00.248Z,83.43
2022-10-16T02:08:32.002Z,83.58
2022-10-16T02:11:02.724Z,83.76
2022-10-16T02:13:38.121Z,83.63
2022-10-16T02:16:07.525Z,83.77
2022-10-16T02:18:36.039Z,83.61
2022-10-16T02:21:12.863Z,83.72
2022-10-16T02:23:48.613Z,83.60
2022-10-16T02:26:23.226Z,83.50
2022-10-16T02:28:58.951Z,83.52
2022-10-16T02:31:30.518Z,83.92
2022-10-16T02:34:01.537Z,83.57
2022-10-16T02:36:30.321Z,83.57
2022-10-16T02:38:58.805Z,83.98
2022-10-16T02:41:27.718Z,83.79
2022-10-16T02:43:57.365Z,84.07
2022-10-16T02:46:25.704Z,84.37
2022-10-16T02:48:53.963Z,84.58
2022-10-16T02:51:22.315Z,84.87
2022-10-16T02:53:50.603Z,85.00
2022-10-16T02:58:52.172Z,85.25
2022-10-16T03:01:21.935Z,85.43
2022-10-16T03:03:50.592Z,85.62
2022-10-16T03:06:18.846Z,85.60
2022-10-16T03:08:47.173Z,85.69
2022-10-16T03:11:15.370Z,85.46
2022-10-16T03:13:43.740Z,85.59
2022-10-16T03:16:12.210Z,85.62
2022-10-16T03:18:41.854Z,85.72
2022-10-16T03:21:10.296Z,85.84
2022-10-16T03:23:38.585Z,85.46
2022-10-16T03:26:07.202Z,85.73
2022-10-16T03:28:35.607Z,85.50
2022-10-16T03:31:03.889Z,85.51
2022-10-16T03:33:32.287Z,85.58
2022-10-16T03:36:02.090Z,85.24
2022-10-16T03:38:30.520Z,85.27
2022-10-16T03:40:58.781Z,85.26
2022-10-16T03:43:27.088Z,85.01
2022-10-16T03:45:55.420Z,85.02
2022-10-16T03:48:23.831Z,84.93
2022-10-16T03:50:52.704Z,85.08
2022-10-16T03:53:22.643Z,85.17
2022-10-16T03:55:50.924Z,85.17
2022-10-16T03:58:21.010Z,85.27
2022-10-16T04:00:49.568Z,85.69
2022-10-16T04:03:19.782Z,85.79
2022-10-16T04:05:48.187Z,85.85
2022-10-16T04:08:16.479Z,86.14
2022-10-16T04:10:46.432Z,86.35
2022-10-16T04:13:14.912Z,86.38
2022-10-16T04:15:43.722Z,86.53
2022-10-16T04:18:11.979Z,86.57
2022-10-16T04:20:40.339Z,86.68
2022-10-16T04:23:08.736Z,87.00
2022-10-16T04:25:37.123Z,87.08
2022-10-16T04:28:06.871Z,87.17
2022-10-16T04:30:35.556Z,87.29
2022-10-16T04:33:04.124Z,87.47
2022-10-16T04:35:32.544Z,87.33
2022-10-16T04:38:01.007Z,87.67
2022-10-16T04:40:29.250Z,87.68
2022-10-16T04:42:57.562Z,87.58
2022-10-16T04:45:27.364Z,87.67
2022-10-16T04:47:58.882Z,88.01
2022-10-16T04:50:27.408Z,88.58
2022-10-16T04:53:08.099Z,88.60
2022-10-16T04:55:37.202Z,88.76
2022-10-16T04:58:06.005Z,88.87
2022-10-16T05:00:35.806Z,88.71
2022-10-16T05:03:07.148Z,88.64
2022-10-16T05:05:35.984Z,88.71
2022-10-16T05:08:05.010Z,89.37
2022-10-16T05:10:33.285Z,89.59
2022-10-16T05:13:01.550Z,89.71
2022-10-16T05:15:29.965Z,89.83
2022-10-16T05:17:59.551Z,89.88
2022-10-16T05:20:28.116Z,90.49
2022-10-16T05:22:56.439Z,90.61
2022-10-16T05:25:24.731Z,90.86
2022-10-16T05:27:53.021Z,90.95
2022-10-16T05:30:21.325Z,91.12
2022-10-16T05:32:50.370Z,90.99
2022-10-16T05:35:21.547Z,91.44
2022-10-16T05:37:50.014Z,91.26
2022-10-16T05:40:19.012Z,91.09
2022-10-16T05:42:47.516Z,91.08
2022-10-16T05:45:15.772Z,90.99
2022-10-16T05:47:44.101Z,91.05
2022-10-16T05:50:12.429Z,90.92
2022-10-16T05:52:42.116Z,91.11
2022-10-16T05:55:10.869Z,91.02
2022-10-16T05:57:39.570Z,91.13
2022-10-16T06:00:09.672Z,90.88
2022-10-16T06:02:43.591Z,91.00
2022-10-16T06:05:11.930Z,91.01
2022-10-16T06:07:41.600Z,90.97
2022-10-16T06:10:10.981Z,90.96
2022-10-16T06:12:39.460Z,90.62
2022-10-16T06:15:08.675Z,90.36
2022-10-16T06:17:37.042Z,90.37
2022-10-16T06:20:06.073Z,89.55
2022-10-16T06:22:34.437Z,89.24
2022-10-16T06:25:04.495Z,88.42
2022-10-16T06:27:32.834Z,87.85
2022-10-16T06:30:01.104Z,87.59
2022-10-16T06:32:29.981Z,87.55
2022-10-16T06:34:58.210Z,87.67
2022-10-16T06:37:27.173Z,88.32
2022-10-16T06:39:55.908Z,88.83
2022-10-16T06:42:25.945Z,89.35
2022-10-16T06:44:54.531Z,90.00
2022-10-16T06:47:22.816Z,90.39
2022-10-16T06:49:54.227Z,90.60
2022-10-16T06:52:23.125Z,90.89
2022-10-16T06:54:52.265Z,90.67
2022-10-16T06:57:20.661Z,90.75
2022-10-16T06:59:55.113Z,90.65
2022-10-16T07:02:23.933Z,90.75
2022-10-16T07:04:52.761Z,90.86
2022-10-16T07:07:21.129Z,91.09
2022-10-16T07:09:49.382Z,90.46
2022-10-16T07:12:17.767Z,89.90
2022-10-16T07:14:46.548Z,88.15
2022-10-16T07:17:16.227Z,86.98
2022-10-16T07:19:44.464Z,85.54
2022-10-16T07:22:12.811Z,84.34
2022-10-16T07:24:41.067Z,83.12
2022-10-16T07:27:09.492Z,81.74
2022-10-16T07:29:37.889Z,80.47
2022-10-16T07:32:06.622Z,79.58
2022-10-16T07:34:36.319Z,78.72
2022-10-16T07:37:04.658Z,77.96
2022-10-16T07:39:32.969Z,77.36
2022-10-16T07:42:01.268Z,76.23
2022-10-16T07:44:29.665Z,75.41
2022-10-16T07:46:58.628Z,74.64
2022-10-16T07:49:26.925Z,73.60
2022-10-16T07:51:56.563Z,73.58
2022-10-16T07:54:24.905Z,72.83
2022-10-16T07:56:53.180Z,71.90
2022-10-16T07:59:21.494Z,71.51
2022-10-16T08:01:51.543Z,70.94
2022-10-16T08:04:19.934Z,70.27
2022-10-16T08:06:48.242Z,69.81
2022-10-16T08:09:18.230Z,69.03
2022-10-16T08:11:46.555Z,68.73
2022-10-16T08:14:14.819Z,68.32
2022-10-16T08:16:43.239Z,67.74
2022-10-16T08:19:11.492Z,67.26
2022-10-16T08:21:39.808Z,67.10
2022-10-16T08:24:08.154Z,66.39
2022-10-16T08:26:37.851Z,66.09
2022-10-16T08:29:06.392Z,65.78
2022-10-16T08:31:34.992Z,65.30
2022-10-16T08:34:03.565Z,65.10
2022-10-16T08:36:31.917Z,64.81
2022-10-16T08:39:00.208Z,64.34
2022-10-16T08:42:01.308Z,64.54
2022-10-16T08:45:17.754Z,63.85
2022-10-16T08:47:52.238Z,64.21
2022-10-16T08:50:28.022Z,64.07
2022-10-16T08:52:57.925Z,63.85
2022-10-16T08:55:35.296Z,62.76
2022-10-16T08:58:13.352Z,62.93
2022-10-16T09:00:42.031Z,63.02
2022-10-16T09:03:20.202Z,62.69
2022-10-16T09:06:02.710Z,62.19
2022-10-16T09:08:41.806Z,62.32
2022-10-16T09:11:18.763Z,61.17
2022-10-16T09:13:58.263Z,61.34
2022-10-16T09:16:32.005Z,60.54
2022-10-16T09:19:08.122Z,59.34
2022-10-16T09:21:41.510Z,59.65
2022-10-16T09:24:16.635Z,59.02
2022-10-16T09:26:45.600Z,59.43
2022-10-16T09:29:15.958Z,59.54
2022-10-16T09:31:45.189Z,59.22
2022-10-16T09:34:27.379Z,58.50
2022-10-16T09:36:56.141Z,58.64
2022-10-16T09:39:24.399Z,58.91
2022-10-16T09:41:53.583Z,58.84
2022-10-16T09:44:28.814Z,59.09
2022-10-16T09:47:05.239Z,59.47
2022-10-16T09:49:35.019Z,58.72
2022-10-16T09:52:08.029Z,59.55
2022-10-16T09:54:36.352Z,58.89
2022-10-16T09:57:09.176Z,58.24
2022-10-16T09:59:49.550Z,58.59
2022-10-16T10:02:19.992Z,59.66
2022-10-16T10:04:55.172Z,59.06
2022-10-16T10:07:28.586Z,58.33
2022-10-16T10:09:58.952Z,57.90
2022-10-16T10:12:30.240Z,59.03
2022-10-16T10:15:06.609Z,57.94
2022-10-16T10:17:35.404Z,58.34
2022-10-16T10:20:23.951Z,58.69
2022-10-16T10:22:52.381Z,60.07
2022-10-16T10:25:41.349Z,59.28
2022-10-16T10:28:39.387Z,59.34
2022-10-16T10:31:17.859Z,58.15
2022-10-16T10:33:51.694Z,57.34
2022-10-16T10:36:31.489Z,53.84
2022-10-16T10:39:03.826Z,55.34
2022-10-16T10:42:18.311Z,56.55
2022-10-16T10:45:13.681Z,56.63
2022-10-16T10:47:57.679Z,54.85
2022-10-16T10:50:33.365Z,54.77
2022-10-16T10:53:14.270Z,53.96
2022-10-16T10:55:50.027Z,52.69
2022-10-16T10:58:59.656Z,49.78
2022-10-16T11:01:38.245Z,50.22
2022-10-16T11:04:52.338Z,48.11
2022-10-16T11:07:28.389Z,47.46
2022-10-16T11:10:03.705Z,49.33
2022-10-16T11:12:37.206Z,50.72
2022-10-16T11:15:14.601Z,47.34
2022-10-16T11:17:47.944Z,46.09
2022-10-16T11:20:23.805Z,45.64
2022-10-16T11:22:58.388Z,46.13
2022-10-16T11:25:30.046Z,47.64
2022-10-16T11:28:05.065Z,49.62
2022-10-16T11:30:42.947Z,49.97
2022-10-16T11:33:32.703Z,49.18
2022-10-16T11:36:12.563Z,49.35
2022-10-16T11:38:51.303Z,49.38
2022-10-16T11:41:28.163Z,48.69
2022-10-16T11:44:13.513Z,48.11
2022-10-16T11:46:59.182Z,46.81
2022-10-16T11:49:38.584Z,48.69
2022-10-16T11:52:19.605Z,49.67
2022-10-16T11:54:53.966Z,48.88
2022-10-16T11:57:26.775Z,49.61
2022-10-16T12:00:00.108Z,49.80
2022-10-16T12:02:56.908Z,45.10
2022-10-16T12:05:35.661Z,45.52
2022-10-16T12:08:12.376Z,46.81
2022-10-16T12:10:43.594Z,46.55
2022-10-16T12:13:35.247Z,47.06
2022-10-16T12:16:24.509Z,47.85
2022-10-16T12:19:13.433Z,47.79
2022-10-16T12:21:42.643Z,47.45
2022-10-16T12:24:38.394Z,46.39
2022-10-16T12:27:23.968Z,46.55
2022-10-16T12:29:58.523Z,46.19
2022-10-16T12:32:48.644Z,46.75
2022-10-16T12:35:24.727Z,47.00
2022-10-16T12:37:54.243Z,47.19
2022-10-16T12:40:33.547Z,47.88
2022-10-16T12:43:13.901Z,48.07
2022-10-16T12:45:42.279Z,47.19
2022-10-16T12:48:29.123Z,47.08
2022-10-16T12:51:26.810Z,47.58
2022-10-16T12:54:02.177Z,47.86
2022-10-16T12:56:46.254Z,47.52
2022-10-16T12:59:27.409Z,47.95
2022-10-16T13:02:18.303Z,48.02
2022-10-16T13:05:05.091Z,48.67
2022-10-16T13:07:57.570Z,48.21
2022-10-16T13:10:35.265Z,48.72
2022-10-16T13:13:59.615Z,48.70
2022-10-16T13:16:39.470Z,49.15
2022-10-16T13:19:21.199Z,49.44
2022-10-16T13:21:58.503Z,49.64
2022-10-16T13:24:51.930Z,50.25
2022-10-16T13:27:33.596Z,50.16
2022-10-16T13:30:14.907Z,50.50
2022-10-16T13:32:47.821Z,49.35
2022-10-16T13:35:29.138Z,50.00
2022-10-16T13:38:17.195Z,50.27
2022-10-16T13:40:55.207Z,51.34
2022-10-16T13:43:28.250Z,51.82
2022-10-16T13:46:02.811Z,52.89
2022-10-16T13:48:32.065Z,52.74
2022-10-16T13:51:07.762Z,52.68
2022-10-16T13:53:37.919Z,52.89
2022-10-16T13:56:08.863Z,52.52
2022-10-16T13:58:37.306Z,52.65
2022-10-16T14:01:18.748Z,52.61
2022-10-16T14:03:47.908Z,53.04
2022-10-16T14:06:19.005Z,53.42
2022-10-16T14:08:59.475Z,53.60
2022-10-16T14:11:28.314Z,53.76
2022-10-16T14:13:57.462Z,54.45
2022-10-16T14:16:31.845Z,53.84
2022-10-16T14:19:07.352Z,53.79
2022-10-16T14:21:36.684Z,53.66
2022-10-16T14:24:14.333Z,53.77
2022-10-16T14:26:51.112Z,53.16
2022-10-16T14:29:22.337Z,53.48
2022-10-16T14:32:00.313Z,53.45
2022-10-16T14:34:33.804Z,53.42
2022-10-16T14:39:42.505Z,54.16
2022-10-16T14:42:18.755Z,54.87
2022-10-16T14:44:48.305Z,54.88
2022-10-16T14:47:23.432Z,54.86
2022-10-16T14:49:51.854Z,54.89
2022-10-16T14:52:20.495Z,54.77
2022-10-16T14:54:51.254Z,55.27
2022-10-16T14:57:21.010Z,55.74
2022-10-16T14:59:52.142Z,55.18
2022-10-16T15:02:30.478Z,55.58
2022-10-16T15:07:28.326Z,56.43
2022-10-16T15:09:58.015Z,57.36
2022-10-16T15:12:26.284Z,58.63
2022-10-16T15:14:54.619Z,59.95
2022-10-16T15:17:24.450Z,59.60
2022-10-16T15:19:53.052Z,59.84
2022-10-16T15:22:24.250Z,60.22
2022-10-16T15:24:52.575Z,60.27
2022-10-16T15:27:20.823Z,60.62
2022-10-16T15:29:49.195Z,62.45
2022-10-16T15:32:17.764Z,62.83
2022-10-16T15:34:47.390Z,62.89
2022-10-16T15:37:15.691Z,63.69
2022-10-16T15:39:44.052Z,64.12
2022-10-16T15:42:12.319Z,65.77
2022-10-16T15:44:40.615Z,66.98
2022-10-16T15:47:10.170Z,67.18
2022-10-16T15:49:38.396Z,67.14
2022-10-16T15:52:08.090Z,66.35
2022-10-16T15:54:37.813Z,65.39
2022-10-16T15:57:06.185Z,65.29
2022-10-16T15:59:34.494Z,65.35
2022-10-16T16:02:02.904Z,65.00
2022-10-16T16:04:43.564Z,64.79
2022-10-16T16:07:13.978Z,64.35
2022-10-16T16:09:42.560Z,64.90
2022-10-16T16:12:10.799Z,64.80
2022-10-16T16:14:39.145Z,65.29
2022-10-16T16:17:07.485Z,65.28
2022-10-16T16:19:35.863Z,65.58
2022-10-16T16:22:06.975Z,66.11
2022-10-16T16:24:39.033Z,65.86
2022-10-16T16:27:07.957Z,67.06
2022-10-16T16:29:36.582Z,67.45
2022-10-16T16:32:05.370Z,68.34
2022-10-16T16:34:33.639Z,68.22
2022-10-16T16:37:02.097Z,68.20
2022-10-16T16:39:30.436Z,68.98
2022-10-16T16:42:00.436Z,68.95
2022-10-16T16:44:28.821Z,68.84
2022-10-16T16:46:57.164Z,68.60
2022-10-16T16:49:25.561Z,68.82
2022-10-16T16:51:55.957Z,69.08
2022-10-16T16:54:24.518Z,68.94
2022-10-16T16:56:52.924Z,68.58
2022-10-16T16:59:23.500Z,68.20
2022-10-16T17:01:56.604Z,68.35
2022-10-16T17:04:25.828Z,68.22
2022-10-16T17:06:55.318Z,67.89
2022-10-16T17:09:24.283Z,67.78
2022-10-16T17:11:52.605Z,67.63
2022-10-16T17:14:22.295Z,67.80
2022-10-16T17:16:50.859Z,67.93
2022-10-16T17:19:21.489Z,68.05
2022-10-16T17:21:50.892Z,67.86
2022-10-16T17:24:21.069Z,67.83
2022-10-16T17:26:50.087Z,67.62
2022-10-16T17:29:19.361Z,67.67
2022-10-16T17:31:50.476Z,68.11
2022-10-16T17:34:19.596Z,69.07
2022-10-16T17:36:48.127Z,69.37
2022-10-16T17:39:19.106Z,70.12
2022-10-16T17:41:48.993Z,70.26
2022-10-16T17:44:20.933Z,70.90
2022-10-16T17:46:53.664Z,71.59
2022-10-16T17:49:22.619Z,73.03
2022-10-16T17:51:53.044Z,73.07
2022-10-16T17:54:22.101Z,73.35
2022-10-16T17:56:50.596Z,73.32
2022-10-16T17:59:22.876Z,73.71
2022-10-16T18:01:52.740Z,74.09
2022-10-16T18:04:21.128Z,73.75
2022-10-16T18:06:49.501Z,73.75
2022-10-16T18:09:20.863Z,73.63
2022-10-16T18:11:52.478Z,73.72
2022-10-16T18:14:20.962Z,74.17
2022-10-16T18:19:20.990Z,74.52
2022-10-16T18:21:49.519Z,74.83
2022-10-16T18:24:18.752Z,75.43
2022-10-16T18:26:47.163Z,75.93
2022-10-16T18:29:15.463Z,76.43
2022-10-16T18:31:43.834Z,76.76
2022-10-16T18:34:12.470Z,76.70
2022-10-16T18:36:43.010Z,76.42
2022-10-16T18:39:13.008Z,76.89
2022-10-16T18:41:44.706Z,77.03
2022-10-16T18:44:13.905Z,77.25
2022-10-16T18:46:42.653Z,78.13
2022-10-16T18:49:11.442Z,78.90
2022-10-16T18:51:44.034Z,80.32
2022-10-16T18:54:14.018Z,82.58
2022-10-16T18:56:42.392Z,83.32
2022-10-16T18:59:11.812Z,84.22
2022-10-16T19:01:40.895Z,85.09
2022-10-16T19:04:12.482Z,85.55
2022-10-16T19:06:44.820Z,86.65
2022-10-16T19:09:15.037Z,87.13
2022-10-16T19:11:44.502Z,88.10
2022-10-16T19:14:13.820Z,88.38
2022-10-16T19:16:43.471Z,88.36
2022-10-16T19:19:18.649Z,88.55
2022-10-16T19:21:51.210Z,88.82
2022-10-16T19:24:19.562Z,89.61
2022-10-16T19:26:48.662Z,91.13
2022-10-16T19:29:17.176Z,92.33
2022-10-16T19:31:45.449Z,93.34
2022-10-16T19:34:13.766Z,94.56
2022-10-16T19:36:42.423Z,95.19
2022-10-16T19:39:17.228Z,95.80
2022-10-16T19:41:47.441Z,96.01
2022-10-16T19:44:17.918Z,96.34
2022-10-16T19:46:48.119Z,96.70
2022-10-16T19:49:21.646Z,96.36
2022-10-16T19:51:51.792Z,95.52
2022-10-16T19:54:21.849Z,96.58
2022-10-16T19:56:50.233Z,97.20
2022-10-16T19:59:20.216Z,97.81
2022-10-16T20:01:49.132Z,98.27
2022-10-16T20:04:17.824Z,99.13
2022-10-16T20:06:46.309Z,100.00
2022-10-16T20:09:15.211Z,100.00
2022-10-16T20:11:45.003Z,100.00
2022-10-16T20:14:13.328Z,100.00
2022-10-16T20:16:41.660Z,100.00
2022-10-16T20:19:10.854Z,100.00
2022-10-16T20:21:39.159Z,99.84
2022-10-16T20:24:08.840Z,98.78
2022-10-16T20:26:38.239Z,97.98
2022-10-16T20:29:08.364Z,97.54
2022-10-16T20:31:36.962Z,97.08
2022-10-16T20:34:08.118Z,96.93
2022-10-16T20:36:38.219Z,96.71
2022-10-16T20:39:08.252Z,96.57
2022-10-16T20:41:37.388Z,96.98
2022-10-16T20:44:07.747Z,96.67
2022-10-16T20:46:36.123Z,96.42
2022-10-16T20:49:11.181Z,96.42
2022-10-16T20:51:39.973Z,96.40
2022-10-16T20:54:08.775Z,96.79
2022-10-16T20:56:38.559Z,96.89
2022-10-16T20:59:08.519Z,97.52
2022-10-16T21:01:37.441Z,97.51
2022-10-16T21:04:08.585Z,97.22
2022-10-16T21:06:39.995Z,96.40
2022-10-16T21:09:09.245Z,97.01
2022-10-16T21:11:38.858Z,96.79
2022-10-16T21:14:10.372Z,96.99
2022-10-16T21:16:38.833Z,96.55
2022-10-16T21:19:07.665Z,95.74
2022-10-16T21:21:38.890Z,96.22
2022-10-16T21:24:12.138Z,96.24
2022-10-16T21:26:43.593Z,96.87
2022-10-16T21:29:13.818Z,97.12
2022-10-16T21:31:42.575Z,97.04
2022-10-16T21:34:11.070Z,96.63
2022-10-16T21:36:42.374Z,97.18
2022-10-16T21:39:14.064Z,97.57
2022-10-16T21:41:47.032Z,97.67
2022-10-16T21:44:17.487Z,98.51
2022-10-16T21:46:46.344Z,98.47
2022-10-16T21:49:16.947Z,98.80
2022-10-16T21:51:47.279Z,98.99
2022-10-16T21:54:18.395Z,98.59
2022-10-16T21:56:46.822Z,98.13
2022-10-16T21:59:17.256Z,98.16
2022-10-16T22:01:46.031Z,98.04
2022-10-16T22:04:16.480Z,97.59
2022-10-16T22:06:44.975Z,98.07
2022-10-16T22:09:14.745Z,98.59
2022-10-16T22:11:45.437Z,98.95
2022-10-16T22:14:16.739Z,99.09
2022-10-16T22:16:45.735Z,99.43
2022-10-16T22:19:15.303Z,99.96
2022-10-16T22:21:45.997Z,100.00
2022-10-16T22:24:14.704Z,100.00
2022-10-16T22:26:43.030Z,100.00
2022-10-16T22:29:14.677Z,99.95
2022-10-16T22:31:45.364Z,99.32
2022-10-16T22:34:14.788Z,99.01
2022-10-16T22:36:43.094Z,98.90
2022-10-16T22:39:11.987Z,98.94
2022-10-16T22:41:40.265Z,98.81
2022-10-16T22:44:13.526Z,98.77
2022-10-16T22:46:43.264Z,98.86
2022-10-16T22:49:12.030Z,98.91
2022-10-16T22:51:40.427Z,98.72
2022-10-16T22:54:08.829Z,99.00
2022-10-16T22:56:37.081Z,99.10
2022-10-16T22:59:05.823Z,99.28
2022-10-16T23:01:37.171Z,99.76
2022-10-16T23:04:07.679Z,99.95
2022-10-16T23:06:36.277Z,99.83
2022-10-16T23:09:05.171Z,99.41
2022-10-16T23:11:34.412Z,99.07
2022-10-16T23:14:02.804Z,99.00
2022-10-16T23:16:31.181Z,98.59
2022-10-16T23:19:00.250Z,98.38
2022-10-16T23:21:30.091Z,98.33
2022-10-16T23:23:59.043Z,98.77
2022-10-16T23:26:28.775Z,98.67
2022-10-16T23:28:58.661Z,97.72
2022-10-16T23:31:27.337Z,96.68
2022-10-16T23:33:56.806Z,96.11
2022-10-16T23:36:25.794Z,95.62
2022-10-16T23:38:55.858Z,95.51
2022-10-16T23:41:24.150Z,96.20
2022-10-16T23:43:52.517Z,96.63
2022-10-16T23:53:09.392Z,98.88
2022-10-16T23:55:40.274Z,99.88
2022-10-16T23:58:08.683Z,100.00
